Time;durP1;ratioP1;P1;durP2;ratioP2;P2;SDS_P1;SDS_P2;PMS_P1;PMS_P2;Temp;Humidity;BMP_temperature;BMP_pressure;BME280_temperature;BME280_humidity;BME280_pressure;Samples;Min_cycle;Max_cycle;Signal;HPM_P1;HPM_P2
2022/08/27 00:00:13;;;;;;;8.68;2.83;;;19.10;98.20;;;;;;5113525;28;20184;-64
2022/08/27 00:02:40;;;;;;;7.53;3.20;;;19.10;98.30;;;;;;5102864;28;20264;-64
2022/08/27 00:05:06;;;;;;;7.28;3.10;;;19.10;98.40;;;;;;5092505;28;20193;-64
2022/08/27 00:07:31;;;;;;;13.05;3.60;;;19.10;98.50;;;;;;5086437;28;20185;-65
2022/08/27 00:09:57;;;;;;;10.05;3.38;;;19.10;98.60;;;;;;5111239;28;20534;-64
2022/08/27 00:12:23;;;;;;;14.02;3.80;;;19.10;98.70;;;;;;5085859;28;20182;-64
2022/08/27 00:14:49;;;;;;;9.85;3.15;;;19.10;98.80;;;;;;5094503;28;20598;-64
2022/08/27 00:17:15;;;;;;;9.80;3.30;;;19.10;98.80;;;;;;5099151;28;20177;-63
2022/08/27 00:19:41;;;;;;;16.90;5.78;;;19.10;98.80;;;;;;5097454;28;20737;-64
2022/08/27 00:22:08;;;;;;;14.60;4.10;;;19.00;98.80;;;;;;5115356;28;20177;-64
2022/08/27 00:24:35;;;;;;;11.15;4.15;;;19.00;98.80;;;;;;5092014;28;20838;-65
2022/08/27 00:27:01;;;;;;;10.38;3.67;;;19.00;98.90;;;;;;5100972;28;20251;-64
2022/08/27 00:29:27;;;;;;;15.75;5.65;;;19.00;99.10;;;;;;5084877;28;20189;-64
2022/08/27 00:31:53;;;;;;;10.15;3.45;;;18.90;99.10;;;;;;5105597;28;20174;-64
2022/08/27 00:34:21;;;;;;;8.38;2.80;;;18.90;99.20;;;;;;5102692;28;20238;-65
2022/08/27 00:36:46;;;;;;;5.38;2.58;;;18.90;99.30;;;;;;5110001;27;20238;-64
2022/08/27 00:39:13;;;;;;;8.60;2.22;;;18.90;99.40;;;;;;5090480;28;20208;-65
2022/08/27 00:41:39;;;;;;;7.57;2.45;;;18.80;99.40;;;;;;5099077;28;20219;-65
2022/08/27 00:44:06;;;;;;;8.40;2.55;;;18.90;99.50;;;;;;5098780;28;20186;-64
2022/08/27 00:46:34;;;;;;;15.45;3.00;;;18.80;99.50;;;;;;5105840;28;20262;-64
2022/08/27 00:49:10;;;;;;;9.63;2.47;;;18.80;99.50;;;;;;5078281;28;20655;-64
2022/08/27 00:51:37;;;;;;;8.00;2.65;;;18.80;99.60;;;;;;5107157;28;20674;-64
2022/08/27 00:54:03;;;;;;;12.73;2.95;;;18.70;99.70;;;;;;5097223;28;20189;-64
2022/08/27 00:56:34;;;;;;;10.23;2.67;;;18.70;99.80;;;;;;5115524;28;20317;-64
2022/08/27 00:59:02;;;;;;;10.15;2.83;;;18.60;99.90;;;;;;5082351;28;20288;-64
2022/08/27 01:01:31;;;;;;;8.07;3.97;;;18.60;99.90;;;;;;5078891;28;20468;-64
2022/08/27 01:04:01;;;;;;;8.77;3.50;;;18.60;99.90;;;;;;5078777;28;20180;-64
2022/08/27 01:06:36;;;;;;;9.23;4.60;;;18.50;99.90;;;;;;5112930;28;20178;-64
2022/08/27 01:09:08;;;;;;;11.00;6.43;;;18.50;99.90;;;;;;5087097;28;20188;-64
2022/08/27 01:11:33;;;;;;;8.32;2.83;;;18.50;99.90;;;;;;5087649;28;20166;-64
2022/08/27 01:14:01;;;;;;;7.88;2.83;;;18.50;99.90;;;;;;5078838;28;20235;-64
2022/08/27 01:16:31;;;;;;;7.30;2.80;;;18.50;99.90;;;;;;5088904;28;20181;-65
2022/08/27 01:18:59;;;;;;;10.07;2.83;;;18.50;99.90;;;;;;5096281;27;20326;-64
2022/08/27 01:21:40;;;;;;;7.43;2.50;;;18.40;99.90;;;;;;5064034;28;20182;-64
2022/08/27 01:24:27;;;;;;;7.80;2.78;;;18.40;99.90;;;;;;5095659;28;20168;-63
2022/08/27 01:26:53;;;;;;;8.93;2.40;;;18.40;99.90;;;;;;5094582;28;20185;-64
2022/08/27 01:29:18;;;;;;;5.97;2.92;;;18.30;99.90;;;;;;5090320;28;20255;-63
2022/08/27 01:31:44;;;;;;;12.55;2.90;;;18.30;99.90;;;;;;5111818;28;20173;-63
2022/08/27 01:34:10;;;;;;;9.63;2.90;;;18.20;99.90;;;;;;5096691;28;20181;-63
2022/08/27 01:36:36;;;;;;;6.63;2.95;;;18.30;99.90;;;;;;5077360;28;20219;-64
2022/08/27 01:39:02;;;;;;;6.57;2.80;;;18.30;99.90;;;;;;5095980;28;20651;-63
2022/08/27 01:41:28;;;;;;;7.57;3.03;;;18.20;99.90;;;;;;5077725;28;20247;-64
2022/08/27 01:43:54;;;;;;;7.03;2.70;;;18.20;99.90;;;;;;5095180;28;20174;-63
2022/08/27 01:46:25;;;;;;;9.40;2.65;;;18.20;99.90;;;;;;5094135;28;20181;-64
2022/08/27 01:48:51;;;;;;;5.55;2.30;;;18.20;99.90;;;;;;5095839;28;20182;-64
2022/08/27 01:51:17;;;;;;;6.85;2.47;;;18.10;99.90;;;;;;5095701;28;20218;-64
2022/08/27 01:53:43;;;;;;;9.23;3.03;;;18.10;99.90;;;;;;5077490;28;20592;-63
2022/08/27 01:56:10;;;;;;;7.95;3.00;;;18.10;99.90;;;;;;5082197;28;20190;-64
2022/08/27 01:58:36;;;;;;;10.40;2.67;;;18.20;99.90;;;;;;5101826;28;20221;-64
2022/08/27 02:01:08;;;;;;;10.10;3.00;;;18.10;99.90;;;;;;5099580;28;20179;-63
2022/08/27 02:03:35;;;;;;;10.13;4.07;;;18.10;99.90;;;;;;5113996;28;20181;-64
2022/08/27 02:06:05;;;;;;;9.27;2.80;;;18.10;99.90;;;;;;5114014;28;20177;-63
2022/08/27 02:08:31;;;;;;;7.00;2.90;;;18.10;99.90;;;;;;5096994;28;20184;-63
2022/08/27 02:10:58;;;;;;;7.70;3.28;;;18.00;99.90;;;;;;5115865;28;20181;-63
2022/08/27 02:13:24;;;;;;;9.32;3.42;;;18.00;99.90;;;;;;5097045;28;20170;-64
2022/08/27 02:15:49;;;;;;;8.27;3.30;;;18.00;99.90;;;;;;5093610;28;20674;-63
2022/08/27 02:18:16;;;;;;;6.55;3.17;;;18.00;99.90;;;;;;5096794;28;20205;-65
2022/08/27 02:20:44;;;;;;;7.65;2.90;;;18.00;99.90;;;;;;5104667;28;20177;-63
2022/08/27 02:23:11;;;;;;;7.55;2.95;;;18.00;99.90;;;;;;5108331;28;20170;-63
2022/08/27 02:25:37;;;;;;;9.20;2.63;;;18.00;99.90;;;;;;5112810;28;20180;-64
2022/08/27 02:28:05;;;;;;;9.90;2.75;;;17.90;99.90;;;;;;5084226;28;20182;-64
2022/08/27 02:30:33;;;;;;;8.38;3.00;;;17.90;99.90;;;;;;5103903;27;20173;-63
2022/08/27 02:33:01;;;;;;;6.38;2.60;;;17.80;99.90;;;;;;5100688;28;20170;-63
2022/08/27 02:35:29;;;;;;;13.32;8.85;;;17.80;99.90;;;;;;5110756;28;20636;-64
2022/08/27 02:37:55;;;;;;;8.80;2.72;;;17.80;99.90;;;;;;5078286;28;20177;-63
2022/08/27 02:40:23;;;;;;;6.40;2.25;;;17.80;99.90;;;;;;5100463;28;20542;-63
2022/08/27 02:42:49;;;;;;;7.10;2.55;;;17.80;99.90;;;;;;5096485;28;20182;-63
2022/08/27 02:45:15;;;;;;;7.65;3.65;;;17.80;99.90;;;;;;5076676;28;20273;-64
2022/08/27 02:47:42;;;;;;;7.97;3.50;;;17.70;99.90;;;;;;5087729;28;20625;-63
2022/08/27 02:50:09;;;;;;;9.35;3.42;;;17.80;99.90;;;;;;5081563;28;20341;-63
2022/08/27 02:52:35;;;;;;;8.20;3.13;;;17.80;99.90;;;;;;5094584;28;20221;-63
2022/08/27 02:55:01;;;;;;;9.43;3.40;;;17.80;99.90;;;;;;5093533;28;20185;-63
2022/08/27 02:57:28;;;;;;;13.07;3.30;;;17.70;99.90;;;;;;5095353;28;20185;-63
2022/08/27 02:59:53;;;;;;;7.68;3.15;;;17.70;99.90;;;;;;5078307;28;20210;-63
2022/08/27 03:02:20;;;;;;;9.98;3.85;;;17.70;99.90;;;;;;5073107;28;20188;-63
2022/08/27 03:04:46;;;;;;;8.38;3.28;;;17.70;99.90;;;;;;5114964;28;20211;-63
2022/08/27 03:07:13;;;;;;;6.60;2.78;;;17.70;99.90;;;;;;5107399;28;20230;-63
2022/08/27 03:09:39;;;;;;;5.65;2.83;;;17.70;99.90;;;;;;5095776;28;20251;-64
2022/08/27 03:12:04;;;;;;;11.63;2.88;;;17.60;99.90;;;;;;5107201;28;20637;-63
2022/08/27 03:14:30;;;;;;;13.27;3.30;;;17.60;99.90;;;;;;5080406;28;20212;-63
2022/08/27 03:18:16;;;;;;;9.52;3.50;;;17.60;99.90;;;;;;5093816;28;20177;-63
2022/08/27 03:19:42;;;;;;;8.85;2.92;;;17.60;99.90;;;;;;5113284;28;20672;-63
2022/08/27 03:22:08;;;;;;;5.30;2.45;;;17.60;99.90;;;;;;5094972;28;20178;-64
2022/08/27 03:24:34;;;;;;;9.55;2.85;;;17.50;99.90;;;;;;5093180;28;20177;-64
2022/08/27 03:27:00;;;;;;;8.05;2.78;;;17.50;99.90;;;;;;5096111;28;20170;-63
2022/08/27 03:29:27;;;;;;;7.28;3.45;;;17.50;99.90;;;;;;5075295;28;20193;-63
2022/08/27 03:31:53;;;;;;;9.73;2.83;;;17.50;99.90;;;;;;5077526;28;20385;-64
2022/08/27 03:34:18;;;;;;;7.90;3.00;;;17.60;99.90;;;;;;5108637;28;20640;-63
2022/08/27 03:36:44;;;;;;;6.47;2.95;;;17.50;99.90;;;;;;5110370;28;20173;-63
2022/08/27 03:39:10;;;;;;;8.32;2.80;;;17.60;99.90;;;;;;5103644;28;20208;-63
2022/08/27 03:41:36;;;;;;;6.93;2.78;;;17.60;99.90;;;;;;5094361;27;20184;-64
2022/08/27 03:44:01;;;;;;;5.45;2.90;;;17.60;99.90;;;;;;5113061;28;20185;-63
2022/08/27 03:46:29;;;;;;;9.77;3.20;;;17.60;99.90;;;;;;5094418;28;20652;-63
2022/08/27 03:48:55;;;;;;;7.22;3.38;;;17.60;99.90;;;;;;5093102;28;20234;-64
2022/08/27 03:51:22;;;;;;;7.50;3.30;;;17.60;99.90;;;;;;5111385;28;20224;-64
2022/08/27 03:53:48;;;;;;;7.05;2.78;;;17.70;99.90;;;;;;5079532;28;20169;-63
2022/08/27 03:56:14;;;;;;;9.02;2.90;;;17.70;99.90;;;;;;5094118;28;20181;-63
2022/08/27 03:58:40;;;;;;;7.45;2.90;;;17.70;99.90;;;;;;5093548;28;20201;-64
2022/08/27 04:01:07;;;;;;;7.72;2.92;;;17.70;99.90;;;;;;5093251;28;20247;-63
2022/08/27 04:03:34;;;;;;;7.68;2.53;;;17.80;99.90;;;;;;5093544;28;20596;-63
2022/08/27 04:06:00;;;;;;;10.10;2.85;;;17.80;99.90;;;;;;5093151;28;20182;-63
2022/08/27 04:08:26;;;;;;;8.25;2.50;;;17.80;99.90;;;;;;5097481;28;20188;-64
2022/08/27 04:10:53;;;;;;;7.53;2.92;;;17.90;99.90;;;;;;5088481;28;20338;-63
2022/08/27 04:13:20;;;;;;;8.13;2.42;;;17.90;99.90;;;;;;5095871;28;20212;-64
2022/08/27 04:15:48;;;;;;;8.98;3.10;;;17.90;99.90;;;;;;5102071;28;20185;-63
2022/08/27 04:18:15;;;;;;;6.93;2.50;;;17.90;99.90;;;;;;5093778;28;20205;-63
2022/08/27 04:20:46;;;;;;;7.22;2.58;;;18.00;99.90;;;;;;5113962;28;20173;-63
2022/08/27 04:23:12;;;;;;;9.50;2.50;;;18.00;99.90;;;;;;5098895;28;20326;-63
2022/08/27 04:25:40;;;;;;;11.32;2.83;;;18.10;99.90;;;;;;5096661;28;20267;-64
2022/08/27 04:28:06;;;;;;;6.40;2.65;;;18.10;99.90;;;;;;5110382;28;20234;-63
2022/08/27 04:30:32;;;;;;;6.05;2.63;;;18.10;99.90;;;;;;5113335;28;20621;-63
2022/08/27 04:32:58;;;;;;;8.55;2.85;;;18.10;99.90;;;;;;5081476;28;20231;-63
2022/08/27 04:35:24;;;;;;;10.98;3.50;;;18.10;99.90;;;;;;5073381;28;20178;-64
2022/08/27 04:37:50;;;;;;;7.40;3.25;;;18.20;99.90;;;;;;5102126;28;20177;-64
2022/08/27 04:40:16;;;;;;;6.30;2.97;;;18.10;99.90;;;;;;5075349;28;20281;-64
2022/08/27 04:42:42;;;;;;;9.13;3.20;;;18.20;99.90;;;;;;5097568;28;20178;-63
2022/08/27 04:45:09;;;;;;;8.40;3.00;;;18.20;99.90;;;;;;5105850;28;20189;-63
2022/08/27 04:47:35;;;;;;;9.75;3.42;;;18.20;99.90;;;;;;5091189;28;20229;-63
2022/08/27 04:50:01;;;;;;;11.15;3.58;;;18.20;99.90;;;;;;5095546;28;20184;-63
2022/08/27 04:52:27;;;;;;;10.70;3.25;;;18.30;99.90;;;;;;5105102;28;20217;-64
2022/08/27 04:54:53;;;;;;;8.02;3.47;;;18.30;99.90;;;;;;5091859;28;20677;-62
2022/08/27 04:57:19;;;;;;;7.22;3.10;;;18.30;99.90;;;;;;5103673;28;20197;-61
2022/08/27 04:59:46;;;;;;;9.48;3.47;;;18.30;99.90;;;;;;5078918;28;20724;-60
2022/08/27 05:02:11;;;;;;;8.50;3.33;;;18.30;99.90;;;;;;5096406;28;20185;-59
2022/08/27 05:04:39;;;;;;;8.90;3.60;;;18.30;99.90;;;;;;5112297;28;20548;-61
2022/08/27 05:07:05;;;;;;;7.75;3.17;;;18.40;99.90;;;;;;5102406;28;20251;-59
2022/08/27 05:09:33;;;;;;;8.27;3.42;;;18.40;99.90;;;;;;5108069;28;20280;-61
2022/08/27 05:11:58;;;;;;;8.60;3.50;;;18.40;99.90;;;;;;5101749;28;20180;-58
2022/08/27 05:14:28;;;;;;;9.32;3.60;;;18.40;99.90;;;;;;5095337;27;20268;-59
2022/08/27 05:16:56;;;;;;;8.70;3.50;;;18.40;99.90;;;;;;5106955;28;20190;-58
2022/08/27 05:19:22;;;;;;;9.77;4.13;;;18.40;99.90;;;;;;5099268;27;20201;-59
2022/08/27 05:21:49;;;;;;;11.00;3.80;;;18.40;99.90;;;;;;5110996;28;20326;-58
2022/08/27 05:24:16;;;;;;;9.43;4.10;;;18.40;99.90;;;;;;5095920;28;20177;-60
2022/08/27 05:26:42;;;;;;;12.98;4.30;;;18.40;99.90;;;;;;5102786;28;20178;-59
2022/08/27 05:29:09;;;;;;;14.38;7.20;;;18.40;99.90;;;;;;5089721;28;20173;-59
2022/08/27 05:31:35;;;;;;;13.55;6.13;;;18.40;99.90;;;;;;5106019;28;20632;-61
2022/08/27 05:34:01;;;;;;;11.85;4.20;;;18.40;99.90;;;;;;5095857;28;20178;-59
2022/08/27 05:36:31;;;;;;;8.88;4.07;;;18.40;99.90;;;;;;5082174;28;20217;-60
2022/08/27 05:39:00;;;;;;;8.13;3.63;;;18.40;99.90;;;;;;5104507;28;20205;-60
2022/08/27 05:41:29;;;;;;;9.80;3.97;;;18.40;99.90;;;;;;5111507;28;20651;-61
2022/08/27 05:43:58;;;;;;;8.60;3.72;;;18.40;99.90;;;;;;5098870;28;20264;-59
2022/08/27 05:46:25;;;;;;;12.93;4.68;;;18.40;99.90;;;;;;5102118;28;20248;-62
2022/08/27 05:48:54;;;;;;;10.65;3.88;;;18.40;99.90;;;;;;5102828;27;20209;-60
2022/08/27 05:51:27;;;;;;;8.18;3.78;;;18.40;99.90;;;;;;5099013;28;20239;-62
2022/08/27 05:54:05;;;;;;;8.23;3.00;;;18.40;99.90;;;;;;5094767;28;20186;-59
2022/08/27 05:56:34;;;;;;;7.10;2.90;;;18.40;99.90;;;;;;5094449;28;20177;-59
2022/08/27 06:01:48;;;;;;;11.98;3.60;;;18.40;99.90;;;;;;5105588;28;20198;-61
2022/08/27 06:04:16;;;;;;;12.00;3.28;;;18.50;99.90;;;;;;5106366;28;20188;-60
2022/08/27 06:06:43;;;;;;;7.95;3.00;;;18.50;99.90;;;;;;5087462;28;20250;-61
2022/08/27 06:09:11;;;;;;;10.07;3.28;;;18.60;99.90;;;;;;5095472;28;20181;-61
2022/08/27 06:11:37;;;;;;;7.03;3.05;;;18.70;99.90;;;;;;5105206;28;20178;-61
2022/08/27 06:14:04;;;;;;;9.43;2.90;;;18.70;99.90;;;;;;5107796;28;20186;-61
2022/08/27 06:16:30;;;;;;;16.55;6.30;;;18.80;99.90;;;;;;5097251;28;20186;-58
2022/08/27 06:18:56;;;;;;;9.98;3.13;;;18.90;99.90;;;;;;5078905;28;20209;-62
2022/08/27 06:21:22;;;;;;;13.73;2.90;;;18.90;99.90;;;;;;5096667;28;20193;-62
2022/08/27 06:23:49;;;;;;;5.03;2.47;;;19.00;99.90;;;;;;5089944;27;20549;-64
2022/08/27 06:26:16;;;;;;;6.88;2.33;;;19.00;99.90;;;;;;5094401;28;20618;-60
2022/08/27 06:28:43;;;;;;;6.30;2.10;;;19.10;99.90;;;;;;5112923;28;20185;-61
2022/08/27 06:31:15;;;;;;;10.18;2.63;;;19.10;99.90;;;;;;5075774;28;20180;-61
2022/08/27 06:33:43;;;;;;;8.05;2.00;;;19.10;99.90;;;;;;5114158;28;20168;-61
2022/08/27 06:36:11;;;;;;;6.85;1.80;;;19.10;99.90;;;;;;5095316;28;20188;-60
2022/08/27 06:38:38;;;;;;;4.88;1.80;;;19.10;99.90;;;;;;5094225;28;20209;-60
2022/08/27 06:41:05;;;;;;;3.67;1.73;;;19.10;99.90;;;;;;5101381;28;20809;-62
2022/08/27 06:43:34;;;;;;;8.60;1.65;;;19.20;99.90;;;;;;5094862;28;20181;-61
2022/08/27 06:46:06;;;;;;;6.70;1.67;;;19.20;99.90;;;;;;5106273;28;20211;-62
2022/08/27 06:48:32;;;;;;;5.43;1.80;;;19.20;99.90;;;;;;5096935;28;20165;-59
2022/08/27 06:50:58;;;;;;;7.03;1.98;;;19.20;99.90;;;;;;5094591;28;20184;-60
2022/08/27 06:53:24;;;;;;;5.78;1.73;;;19.20;99.90;;;;;;5104413;28;20200;-59
2022/08/27 06:55:50;;;;;;;10.77;2.03;;;19.20;99.90;;;;;;5093533;28;20582;-59
2022/08/27 06:58:17;;;;;;;12.25;2.40;;;19.20;99.90;;;;;;5101506;28;20177;-59
2022/08/27 07:00:43;;;;;;;4.20;1.92;;;19.20;99.90;;;;;;5077482;28;20188;-60
2022/08/27 07:03:10;;;;;;;8.13;1.88;;;19.20;99.90;;;;;;5111751;28;20177;-64
2022/08/27 07:05:38;;;;;;;6.60;1.90;;;19.30;99.90;;;;;;5098564;28;20186;-62
2022/08/27 07:08:05;;;;;;;9.75;2.40;;;19.30;99.90;;;;;;5094486;28;20182;-62
2022/08/27 07:10:31;;;;;;;9.00;3.40;;;19.30;99.90;;;;;;5106284;28;20176;-63
2022/08/27 07:12:58;;;;;;;7.93;2.28;;;19.40;99.90;;;;;;5111468;28;20190;-59
2022/08/27 07:15:24;;;;;;;8.85;2.47;;;19.40;99.90;;;;;;5092264;28;20170;-61
2022/08/27 07:17:50;;;;;;;8.30;2.40;;;19.40;99.90;;;;;;5110386;27;20172;-61
2022/08/27 07:20:17;;;;;;;7.50;2.00;;;19.50;99.90;;;;;;5095540;28;20201;-60
2022/08/27 07:22:45;;;;;;;6.07;1.90;;;19.50;99.90;;;;;;5094089;28;20216;-60
2022/08/27 07:25:14;;;;;;;8.50;1.77;;;19.60;99.60;;;;;;5089943;28;20190;-60
2022/08/27 07:27:40;;;;;;;6.85;1.60;;;19.60;99.40;;;;;;5094676;28;20720;-60
2022/08/27 07:30:14;;;;;;;7.75;1.85;;;19.60;99.10;;;;;;5100128;28;20639;-60
2022/08/27 07:32:42;;;;;;;3.80;1.65;;;19.60;98.80;;;;;;5093387;28;20165;-60
2022/08/27 07:35:08;;;;;;;7.45;1.73;;;19.70;98.60;;;;;;5097024;28;20629;-60
2022/08/27 07:37:38;;;;;;;4.82;1.73;;;19.80;98.70;;;;;;5094919;28;20268;-61
2022/08/27 07:40:08;;;;;;;6.68;1.92;;;19.80;98.50;;;;;;5104744;28;20244;-60
2022/08/27 07:45:19;;;;;;;6.65;1.88;;;20.00;98.00;;;;;;5098701;28;20266;-60
2022/08/27 07:47:45;;;;;;;7.20;2.05;;;20.20;98.00;;;;;;5092913;28;20201;-60
2022/08/27 07:50:12;;;;;;;2.78;1.45;;;20.20;97.80;;;;;;5094580;28;20189;-60
2022/08/27 07:52:40;;;;;;;5.45;1.70;;;20.40;97.70;;;;;;5078741;28;20317;-60
2022/08/27 07:55:06;;;;;;;8.63;1.83;;;20.40;97.50;;;;;;5099712;28;20269;-60
2022/08/27 07:57:32;;;;;;;5.95;1.98;;;20.50;97.40;;;;;;5112830;28;20177;-60
2022/08/27 07:59:58;;;;;;;5.40;1.80;;;20.60;97.30;;;;;;5102937;28;20209;-59
2022/08/27 08:02:23;;;;;;;5.95;1.95;;;20.70;97.20;;;;;;5076661;28;20549;-61
2022/08/27 08:04:50;;;;;;;7.38;1.85;;;20.80;96.90;;;;;;5092918;28;20189;-61
2022/08/27 08:07:15;;;;;;;7.22;1.73;;;20.80;96.60;;;;;;5092062;28;20231;-61
2022/08/27 08:09:41;;;;;;;5.63;1.58;;;20.80;96.30;;;;;;5102977;28;20572;-61
2022/08/27 08:12:07;;;;;;;5.53;1.65;;;20.90;95.90;;;;;;5089982;28;20264;-61
2022/08/27 08:14:33;;;;;;;7.20;1.88;;;20.90;95.50;;;;;;5101897;28;20620;-61
2022/08/27 08:17:00;;;;;;;7.38;1.58;;;20.90;95.10;;;;;;5108079;28;20193;-61
2022/08/27 08:19:27;;;;;;;4.43;1.63;;;21.00;95.00;;;;;;5106621;28;20369;-61
2022/08/27 08:21:52;;;;;;;5.10;1.70;;;21.00;94.90;;;;;;5092653;28;20269;-61
2022/08/27 08:24:18;;;;;;;13.50;1.70;;;21.00;94.80;;;;;;5078913;28;20315;-62
2022/08/27 08:26:44;;;;;;;6.97;1.85;;;21.10;94.80;;;;;;5101960;28;21098;-65
2022/08/27 08:29:10;;;;;;;5.70;1.55;;;21.10;94.60;;;;;;5100513;28;20722;-62
2022/08/27 08:31:36;;;;;;;7.10;1.60;;;21.20;94.60;;;;;;5074579;28;20220;-62
2022/08/27 08:34:02;;;;;;;5.05;1.50;;;21.20;94.40;;;;;;5083293;28;20214;-62
2022/08/27 08:36:28;;;;;;;3.83;1.45;;;21.30;94.20;;;;;;5074796;28;20178;-62
2022/08/27 08:38:54;;;;;;;5.35;1.48;;;21.20;94.00;;;;;;5061783;28;20197;-60
2022/08/27 08:41:50;;;;;;;7.25;2.25;;;21.30;94.00;;;;;;5073633;28;20185;-59
2022/08/27 08:44:35;;;;;;;6.10;1.42;;;21.30;93.80;;;;;;5096120;28;20275;-59
2022/08/27 08:47:14;;;;;;;5.80;1.38;;;21.40;93.50;;;;;;5113719;28;20653;-59
2022/08/27 08:49:53;;;;;;;4.47;1.50;;;21.40;93.70;;;;;;5085411;28;20261;-59
2022/08/27 08:52:36;;;;;;;7.55;1.45;;;21.40;93.60;;;;;;5069175;28;20221;-60
2022/08/27 08:55:10;;;;;;;6.07;1.70;;;21.50;93.40;;;;;;5096563;28;20182;-59
2022/08/27 08:57:46;;;;;;;6.55;1.70;;;21.50;93.20;;;;;;5099662;28;20177;-59
2022/08/27 09:00:13;;;;;;;5.88;1.60;;;21.60;93.10;;;;;;5103802;28;20246;-59
2022/08/27 09:02:44;;;;;;;8.50;1.58;;;21.60;92.90;;;;;;5082113;27;20182;-59
2022/08/27 09:05:10;;;;;;;7.40;1.60;;;21.70;92.30;;;;;;5097189;28;20276;-59
2022/08/27 09:08:01;;;;;;;6.80;1.80;;;21.70;91.30;;;;;;5080027;28;20528;-59
2022/08/27 09:10:39;;;;;;;4.78;1.60;;;21.70;90.70;;;;;;5106642;28;20180;-58
2022/08/27 09:13:12;;;;;;;5.25;1.65;;;21.80;90.90;;;;;;5105506;28;20173;-61
2022/08/27 09:15:39;;;;;;;4.43;1.40;;;21.90;90.90;;;;;;5080933;28;20234;-61
2022/08/27 09:18:13;;;;;;;3.83;1.60;;;22.00;90.40;;;;;;5106884;28;20247;-61
2022/08/27 09:20:43;;;;;;;7.38;1.52;;;22.20;90.10;;;;;;5064179;28;20260;-61
2022/08/27 09:23:18;;;;;;;8.70;1.85;;;22.30;90.00;;;;;;5078374;27;20170;-62
2022/08/27 09:25:44;;;;;;;7.90;1.58;;;22.30;89.50;;;;;;5094525;27;20178;-61
2022/08/27 09:31:09;;;;;;;6.32;1.73;;;22.40;87.60;;;;;;5096099;28;20205;-61
2022/08/27 09:33:36;;;;;;;4.72;1.60;;;22.40;87.50;;;;;;5111098;27;20185;-61
2022/08/27 09:36:06;;;;;;;5.55;1.50;;;22.40;87.50;;;;;;5096296;28;20188;-61
2022/08/27 09:38:34;;;;;;;3.83;1.27;;;22.50;87.70;;;;;;5116049;28;20268;-61
2022/08/27 09:41:25;;;;;;;8.98;1.73;;;22.50;88.00;;;;;;5097071;28;20173;-61
2022/08/27 09:44:06;;;;;;;7.22;1.45;;;22.50;88.10;;;;;;5113731;28;20173;-62
2022/08/27 09:46:32;;;;;;;10.30;1.35;;;22.60;88.40;;;;;;5098421;27;20264;-62
2022/08/27 09:49:09;;;;;;;6.43;1.60;;;22.60;88.50;;;;;;5099644;28;20303;-61
2022/08/27 09:51:40;;;;;;;4.65;1.58;;;22.60;88.40;;;;;;5094604;28;20677;-61
2022/08/27 09:54:08;;;;;;;6.95;1.90;;;22.70;88.20;;;;;;5077708;28;20596;-62
2022/08/27 09:56:38;;;;;;;5.85;1.40;;;22.80;88.00;;;;;;5094408;28;20544;-63
2022/08/27 09:59:06;;;;;;;8.40;2.03;;;22.90;87.30;;;;;;5110766;28;20267;-61
2022/08/27 10:01:37;;;;;;;9.45;1.50;;;23.00;86.40;;;;;;5095049;28;20170;-60
2022/08/27 10:04:06;;;;;;;6.00;1.30;;;23.20;85.20;;;;;;5096867;27;20189;-61
2022/08/27 10:06:32;;;;;;;5.68;1.70;;;23.50;84.20;;;;;;5082763;28;20227;-60
2022/08/27 10:09:20;;;;;;;5.32;1.30;;;23.60;83.60;;;;;;5098184;28;20196;-61
2022/08/27 10:12:00;;;;;;;6.40;2.53;;;23.70;82.80;;;;;;5110840;28;20220;-61
2022/08/27 10:14:39;;;;;;;4.90;1.70;;;23.80;81.70;;;;;;5113123;28;20177;-61
2022/08/27 10:17:39;;;;;;;4.57;1.55;;;23.80;81.40;;;;;;5113825;28;20180;-61
2022/08/27 10:20:31;;;;;;;5.65;1.30;;;23.80;81.60;;;;;;5095430;28;20868;-61
2022/08/27 10:23:21;;;;;;;4.50;1.30;;;23.70;81.60;;;;;;5094666;28;20205;-60
2022/08/27 10:26:26;;;;;;;7.95;1.52;;;23.70;81.40;;;;;;5093976;28;20182;-60
2022/08/27 10:28:52;;;;;;;3.95;1.50;;;23.70;81.50;;;;;;5091300;28;20668;-61
2022/08/27 10:31:31;;;;;;;6.82;1.70;;;23.70;81.40;;;;;;5094449;28;20205;-61
2022/08/27 10:34:24;;;;;;;4.53;1.50;;;23.70;81.10;;;;;;5076469;28;20241;-61
2022/08/27 10:37:27;;;;;;;7.93;1.80;;;23.60;79.90;;;;;;5094426;28;20154;-61
2022/08/27 10:40:03;;;;;;;4.70;1.40;;;23.60;79.60;;;;;;5077511;28;20204;-63
2022/08/27 10:42:36;;;;;;;6.80;1.70;;;23.60;79.60;;;;;;5102735;28;20181;-61
2022/08/27 10:45:16;;;;;;;7.65;1.63;;;23.60;79.70;;;;;;5107962;28;20228;-61
2022/08/27 10:48:00;;;;;;;8.52;1.50;;;23.60;80.00;;;;;;5096514;28;20248;-60
2022/08/27 10:50:48;;;;;;;4.63;1.73;;;23.60;80.20;;;;;;5099656;28;20182;-59
2022/08/27 10:53:46;;;;;;;9.07;2.00;;;23.60;79.50;;;;;;5103530;27;20223;-61
2022/08/27 10:56:20;;;;;;;4.88;2.03;;;23.60;78.10;;;;;;5104885;28;20213;-59
2022/08/27 10:59:01;;;;;;;5.45;1.45;;;23.60;77.30;;;;;;5112979;28;20197;-61
2022/08/27 11:01:47;;;;;;;10.48;1.80;;;23.60;76.70;;;;;;5094153;28;20597;-59
2022/08/27 11:04:24;;;;;;;5.07;1.40;;;23.60;77.30;;;;;;5094888;28;20637;-62
2022/08/27 11:06:57;;;;;;;3.58;1.33;;;23.60;76.60;;;;;;5091695;28;20263;-59
2022/08/27 11:09:36;;;;;;;5.47;1.55;;;23.70;77.10;;;;;;5102125;28;20194;-60
2022/08/27 11:12:08;;;;;;;11.02;1.90;;;23.90;77.90;;;;;;5113080;28;20628;-61
2022/08/27 11:14:52;;;;;;;5.50;1.63;;;24.20;78.00;;;;;;5087927;28;20189;-62
2022/08/27 11:17:53;;;;;;;6.55;1.42;;;24.30;77.30;;;;;;5103172;28;20260;-61
2022/08/27 11:20:35;;;;;;;7.38;1.92;;;24.40;76.20;;;;;;5097070;27;20223;-61
2022/08/27 11:23:18;;;;;;;6.50;1.63;;;24.30;76.20;;;;;;5096216;28;20314;-60
2022/08/27 11:25:55;;;;;;;6.25;1.38;;;24.20;76.70;;;;;;5075842;28;20199;-62
2022/08/27 11:28:36;;;;;;;9.18;1.70;;;24.00;77.70;;;;;;5094143;27;20169;-62
2022/08/27 11:31:17;;;;;;;5.30;1.25;;;23.90;78.30;;;;;;5101425;28;20260;-61
2022/08/27 11:34:22;;;;;;;4.88;1.33;;;23.80;78.10;;;;;;5098588;28;20184;-61
2022/08/27 11:36:58;;;;;;;7.25;1.80;;;23.70;78.10;;;;;;5094279;28;20226;-61
2022/08/27 11:39:30;;;;;;;6.28;1.40;;;23.70;78.20;;;;;;5097746;28;20336;-61
2022/08/27 11:42:35;;;;;;;7.85;1.80;;;23.70;78.50;;;;;;5100561;28;20631;-61
2022/08/27 11:45:27;;;;;;;4.80;1.75;;;23.70;78.80;;;;;;5093179;28;20259;-62
2022/08/27 11:47:59;;;;;;;6.65;2.30;;;23.70;78.90;;;;;;5106327;28;20185;-61
2022/08/27 11:50:28;;;;;;;6.90;1.40;;;23.70;78.50;;;;;;5094042;28;20205;-61
2022/08/27 11:52:58;;;;;;;5.05;1.52;;;23.70;78.40;;;;;;5093403;28;20279;-61
2022/08/27 11:55:31;;;;;;;6.47;1.40;;;23.70;78.10;;;;;;5087504;28;20184;-60
2022/08/27 11:58:16;;;;;;;2.97;1.35;;;23.80;78.10;;;;;;5113332;28;20165;-60
2022/08/27 12:00:44;;;;;;;4.93;1.33;;;23.80;78.00;;;;;;5101734;28;20245;-61
2022/08/27 12:03:22;;;;;;;4.10;1.30;;;23.80;77.50;;;;;;5112902;28;20644;-61
2022/08/27 12:06:08;;;;;;;5.25;1.27;;;23.90;77.00;;;;;;5097705;28;20536;-61
2022/08/27 12:08:34;;;;;;;3.55;1.10;;;23.90;75.40;;;;;;5092261;28;20186;-62
2022/08/27 12:11:25;;;;;;;6.72;1.30;;;24.00;74.30;;;;;;5103621;28;20184;-60
2022/08/27 12:14:00;;;;;;;4.78;1.30;;;24.10;73.50;;;;;;5093067;28;20181;-62
2022/08/27 12:16:36;;;;;;;5.78;1.63;;;24.10;73.10;;;;;;5095144;28;20264;-60
2022/08/27 12:19:16;;;;;;;5.75;1.27;;;24.20;72.80;;;;;;5095767;28;20668;-60
2022/08/27 12:21:49;;;;;;;3.75;1.20;;;24.20;72.80;;;;;;5092829;28;20244;-60
2022/08/27 12:24:47;;;;;;;5.22;1.20;;;24.30;73.10;;;;;;5093807;28;20253;-61
2022/08/27 12:27:15;;;;;;;5.00;1.50;;;24.50;74.00;;;;;;5091355;28;22266;-62
2022/08/27 12:29:45;;;;;;;4.60;1.15;;;24.80;73.60;;;;;;5075416;28;20630;-61
2022/08/27 12:32:31;;;;;;;9.30;1.73;;;24.90;72.50;;;;;;5092886;28;20162;-61
2022/08/27 12:35:15;;;;;;;3.20;0.90;;;25.00;71.30;;;;;;5092605;28;20178;-61
2022/08/27 12:37:50;;;;;;;4.97;1.20;;;25.00;68.90;;;;;;5084564;28;20173;-65
2022/08/27 12:40:23;;;;;;;4.70;1.30;;;25.00;69.80;;;;;;5083471;28;20691;-61
2022/08/27 12:42:51;;;;;;;3.63;1.25;;;25.00;69.50;;;;;;5107156;28;20242;-62
2022/08/27 12:45:23;;;;;;;4.32;1.17;;;24.90;69.30;;;;;;5092717;28;20180;-61
2022/08/27 12:47:50;;;;;;;6.07;1.25;;;24.90;69.30;;;;;;5094714;28;20181;-62
2022/08/27 12:50:23;;;;;;;7.38;1.10;;;24.80;69.60;;;;;;5094680;28;20267;-61
2022/08/27 12:53:14;;;;;;;4.93;1.00;;;24.80;70.20;;;;;;5066182;28;20305;-61
2022/08/27 12:55:48;;;;;;;4.10;1.02;;;24.90;70.70;;;;;;5105948;28;20307;-61
2022/08/27 12:58:39;;;;;;;7.13;1.30;;;24.90;69.90;;;;;;5102817;28;20247;-61
2022/08/27 13:01:21;;;;;;;5.63;1.30;;;25.00;69.70;;;;;;5097221;28;20238;-62
2022/08/27 13:03:52;;;;;;;5.47;1.40;;;25.00;69.00;;;;;;5111686;28;20250;-61
2022/08/27 13:06:25;;;;;;;4.72;1.30;;;25.00;68.80;;;;;;5092553;28;20233;-62
2022/08/27 13:09:02;;;;;;;5.75;1.33;;;25.10;68.30;;;;;;5074442;28;20471;-62
2022/08/27 13:11:32;;;;;;;7.82;1.33;;;25.10;68.30;;;;;;5091258;28;20188;-61